Solitaire — DMRE — position and weather

sailwx.info

Track history (hours):
 
Tides and Currents Weather Stations Pressure Air Temp Water Temp Dewpoint Dewpoint Depression Visibility Wind Speed Wind Dir Waves Ship Positions

Solitaire

Last reported at 2018-May-20 07:30 UTC. Time now 2018-May-20 13:50 UTC.
Position N 53°52' E 008°43'.

Length 16 m.

Type: Sailing vessel. MMSI: 211330810.

Date/timePositionNaut miles runAvg speedWind from/ knotsBaromVisibWave heightAir tempDewpointWater temp
2018-May-20 07:30N 53°52' E 008°43'3 6.5
2018-May-20 07:00N 53°51' E 008°48'3 6.7
2018-May-20 06:31N 53°51' E 008°54'3 5.1
2018-May-20 06:00N 53°51' E 008°58'1 2.7
2018-May-20 05:28N 53°50' E 009°00'0 0.0
2018-May-20 04:58N 53°50' E 009°00'0 0.0
2018-May-20 04:28N 53°50' E 009°00'0 0.0
2018-May-20 03:55N 53°50' E 009°01'0 0.0
2018-May-20 03:25N 53°50' E 009°01'0 0.0
2018-May-20 02:55N 53°50' E 009°01'0 0.0
2018-May-20 02:25N 53°50' E 009°01'0 0.0
2018-May-20 01:58N 53°50' E 009°01'0 0.0
2018-May-20 01:04N 53°50' E 009°01'0 0.0
2018-May-20 00:55N 53°50' E 009°01'0 0.0
2018-May-20 00:28N 53°50' E 009°01'0 0.0
2018-May-19 23:58N 53°50' E 009°01'0 0.0
2018-May-19 23:13N 53°50' E 009°00'0 0.0
2018-May-19 22:57N 53°50' E 009°00'0 0.0
2018-May-19 22:28N 53°50' E 009°01'0 0.0
2018-May-19 22:01N 53°50' E 009°01'0 0.0
2018-May-19 21:21N 53°50' E 009°01'0 0.0
2018-May-19 20:54N 53°50' E 009°01'0 0.0
2018-May-19 20:30N 53°50' E 009°01'0 0.0
2018-May-19 19:51N 53°50' E 009°01'0 0.0
2018-May-19 19:30N 53°50' E 009°01'0 0.0
2018-May-19 18:57N 53°50' E 009°01'0 0.0
2018-May-19 18:27N 53°50' E 009°01'0 0.0
2018-May-19 17:57N 53°50' E 009°00'0 0.0
2018-May-19 17:20N 53°50' E 009°00'0 0.0
2018-May-19 16:56N 53°50' E 009°00'0 0.0
2018-May-19 16:29N 53°50' E 009°01'0 0.0
2018-May-19 15:56N 53°50' E 009°01'0 0.0
2018-May-19 15:17N 53°50' E 009°01'0 0.0
2018-May-19 13:33N 53°50' E 009°01'0 0.1
2018-May-19 13:27N 53°50' E 009°01'1 1.6
2018-May-19 13:00N 53°51' E 008°60'3 4.5
2018-May-19 12:23N 53°52' E 009°04'2 5.0
2018-May-19 12:00N 53°52' E 009°07'3 5.8
2018-May-19 11:29N 53°52' E 009°13'3 7.2
2018-May-19 11:00N 53°51' E 009°18'4 7.9
2018-May-19 10:29N 53°48' E 009°22'4 8.7
2018-May-19 09:59N 53°44' E 009°26'4 8.6
2018-May-19 09:30N 53°41' E 009°30'4 8.5
2018-May-19 09:00N 53°37' E 009°33'4 8.1
2018-May-19 08:30N 53°35' E 009°39'4 8.5
2018-May-19 08:00N 53°34' E 009°46'3 6.4
2018-May-19 07:28N 53°32' E 009°51'  
2018-May-13 15:57N 53°32' E 009°51'0 0.0
2018-May-13 15:30N 53°32' E 009°51'1 1.1
2018-May-13 15:00N 53°33' E 009°52'2 4.3
2018-May-13 14:30N 53°33' E 009°55'2 3.9
2018-May-13 14:00N 53°33' E 009°58'1 2.1
2018-May-13 13:30N 53°32' E 009°57'3 6.9
2018-May-13 13:00N 53°33' E 009°51'2 4.1
2018-May-13 12:30N 53°33' E 009°47'0 0.0
2018-May-13 11:57N 53°33' E 009°47'0 0.0
2018-May-13 11:30N 53°33' E 009°47'0 0.1
2018-May-13 11:00N 53°33' E 009°47'1 2.5
2018-May-13 10:31N 53°33' E 009°49'1 1.2
2018-May-13 10:01N 53°33' E 009°50'1 1.3
2018-May-13 09:29N 53°33' E 009°52'1 1.1
2018-May-13 08:59N 53°32' E 009°51'0 0.0
2018-May-13 08:20N 53°32' E 009°51'0 0.0
2018-May-13 07:59N 53°32' E 009°51'  
2018-May-10 14:33N 53°32' E 009°51'0 0.0
2018-May-10 14:30N 53°32' E 009°51'0 0.0
2018-May-10 14:00N 53°32' E 009°51'0 0.0
2018-May-10 13:27N 53°32' E 009°51'0 0.0
2018-May-10 12:57N 53°32' E 009°51'0 0.0
2018-May-10 12:30N 53°32' E 009°51'0 0.0
2018-May-10 12:00N 53°32' E 009°51'0 0.0
2018-May-10 11:30N 53°32' E 009°51'0 0.0
2018-May-10 10:59N 53°32' E 009°51'0 0.0
2018-May-10 10:23N 53°32' E 009°51'0 0.0
2018-May-10 09:59N 53°32' E 009°51'  
Track history (hours):
 
Tides and Currents Weather Stations Pressure Air Temp Water Temp Dewpoint Dewpoint Depression Visibility Wind Speed Wind Dir Waves Ship Positions

Solitaire

Last reported at 2018-May-20 07:30 UTC. Time now 2018-May-20 13:50 UTC.
Position N 53°52' E 008°43'.

Length 16 m.

Type: Sailing vessel. MMSI: 211330810.

Date/timePositionNaut miles runAvg speedWind from/ knotsBaromVisibWave heightAir tempDewpointWater temp
2018-May-20 07:30N 53°52' E 008°43'3 6.5
2018-May-20 07:00N 53°51' E 008°48'3 6.7
2018-May-20 06:31N 53°51' E 008°54'3 5.1
2018-May-20 06:00N 53°51' E 008°58'1 2.7
2018-May-20 05:28N 53°50' E 009°00'0 0.0
2018-May-20 04:58N 53°50' E 009°00'0 0.0
2018-May-20 04:28N 53°50' E 009°00'0 0.0
2018-May-20 03:55N 53°50' E 009°01'0 0.0
2018-May-20 03:25N 53°50' E 009°01'0 0.0
2018-May-20 02:55N 53°50' E 009°01'0 0.0
2018-May-20 02:25N 53°50' E 009°01'0 0.0
2018-May-20 01:58N 53°50' E 009°01'0 0.0
2018-May-20 01:04N 53°50' E 009°01'0 0.0
2018-May-20 00:55N 53°50' E 009°01'0 0.0
2018-May-20 00:28N 53°50' E 009°01'0 0.0
2018-May-19 23:58N 53°50' E 009°01'0 0.0
2018-May-19 23:13N 53°50' E 009°00'0 0.0
2018-May-19 22:57N 53°50' E 009°00'0 0.0
2018-May-19 22:28N 53°50' E 009°01'0 0.0
2018-May-19 22:01N 53°50' E 009°01'0 0.0
2018-May-19 21:21N 53°50' E 009°01'0 0.0
2018-May-19 20:54N 53°50' E 009°01'0 0.0
2018-May-19 20:30N 53°50' E 009°01'0 0.0
2018-May-19 19:51N 53°50' E 009°01'0 0.0
2018-May-19 19:30N 53°50' E 009°01'0 0.0
2018-May-19 18:57N 53°50' E 009°01'0 0.0
2018-May-19 18:27N 53°50' E 009°01'0 0.0
2018-May-19 17:57N 53°50' E 009°00'0 0.0
2018-May-19 17:20N 53°50' E 009°00'0 0.0
2018-May-19 16:56N 53°50' E 009°00'0 0.0
2018-May-19 16:29N 53°50' E 009°01'0 0.0
2018-May-19 15:56N 53°50' E 009°01'0 0.0
2018-May-19 15:17N 53°50' E 009°01'0 0.0
2018-May-19 13:33N 53°50' E 009°01'0 0.1
2018-May-19 13:27N 53°50' E 009°01'1 1.6
2018-May-19 13:00N 53°51' E 008°60'3 4.5
2018-May-19 12:23N 53°52' E 009°04'2 5.0
2018-May-19 12:00N 53°52' E 009°07'3 5.8
2018-May-19 11:29N 53°52' E 009°13'3 7.2
2018-May-19 11:00N 53°51' E 009°18'4 7.9
2018-May-19 10:29N 53°48' E 009°22'4 8.7
2018-May-19 09:59N 53°44' E 009°26'4 8.6
2018-May-19 09:30N 53°41' E 009°30'4 8.5
2018-May-19 09:00N 53°37' E 009°33'4 8.1
2018-May-19 08:30N 53°35' E 009°39'4 8.5
2018-May-19 08:00N 53°34' E 009°46'3 6.4
2018-May-19 07:28N 53°32' E 009°51'  
2018-May-13 15:57N 53°32' E 009°51'0 0.0
2018-May-13 15:30N 53°32' E 009°51'1 1.1
2018-May-13 15:00N 53°33' E 009°52'2 4.3
2018-May-13 14:30N 53°33' E 009°55'2 3.9
2018-May-13 14:00N 53°33' E 009°58'1 2.1
2018-May-13 13:30N 53°32' E 009°57'3 6.9
2018-May-13 13:00N 53°33' E 009°51'2 4.1
2018-May-13 12:30N 53°33' E 009°47'0 0.0
2018-May-13 11:57N 53°33' E 009°47'0 0.0
2018-May-13 11:30N 53°33' E 009°47'0 0.1
2018-May-13 11:00N 53°33' E 009°47'1 2.5
2018-May-13 10:31N 53°33' E 009°49'1 1.2
2018-May-13 10:01N 53°33' E 009°50'1 1.3
2018-May-13 09:29N 53°33' E 009°52'1 1.1
2018-May-13 08:59N 53°32' E 009°51'0 0.0
2018-May-13 08:20N 53°32' E 009°51'0 0.0
2018-May-13 07:59N 53°32' E 009°51'  
2018-May-10 14:33N 53°32' E 009°51'0 0.0
2018-May-10 14:30N 53°32' E 009°51'0 0.0
2018-May-10 14:00N 53°32' E 009°51'0 0.0
2018-May-10 13:27N 53°32' E 009°51'0 0.0
2018-May-10 12:57N 53°32' E 009°51'0 0.0
2018-May-10 12:30N 53°32' E 009°51'0 0.0
2018-May-10 12:00N 53°32' E 009°51'0 0.0
2018-May-10 11:30N 53°32' E 009°51'0 0.0
2018-May-10 10:59N 53°32' E 009°51'0 0.0
2018-May-10 10:23N 53°32' E 009°51'0 0.0
2018-May-10 09:59N 53°32' E 009°51'  

Dump ship's entire track history